sensor_id;sensor_type;location;lat;lon;timestamp;P1;durP1;ratioP1;P2;durP2;ratioP2
75316;SDS011;63913;51.492;10.368;2023-02-28T00:00:48;10.55;;;3.72;;
75316;SDS011;63913;51.492;10.368;2023-02-28T00:03:14;5.97;;;2.67;;
75316;SDS011;63913;51.492;10.368;2023-02-28T00:05:39;3.40;;;2.10;;
75316;SDS011;63913;51.492;10.368;2023-02-28T00:08:06;4.43;;;1.88;;
75316;SDS011;63913;51.492;10.368;2023-02-28T00:10:32;2.60;;;1.33;;
75316;SDS011;63913;51.492;10.368;2023-02-28T00:13:02;3.47;;;1.48;;
75316;SDS011;63913;51.492;10.368;2023-02-28T00:15:30;2.03;;;1.20;;
75316;SDS011;63913;51.492;10.368;2023-02-28T00:17:55;3.20;;;1.50;;
75316;SDS011;63913;51.492;10.368;2023-02-28T00:20:21;1.92;;;1.23;;
75316;SDS011;63913;51.492;10.368;2023-02-28T00:22:47;2.55;;;1.30;;
75316;SDS011;63913;51.492;10.368;2023-02-28T00:25:16;3.30;;;1.33;;
75316;SDS011;63913;51.492;10.368;2023-02-28T00:27:43;2.03;;;1.02;;
75316;SDS011;63913;51.492;10.368;2023-02-28T00:30:12;4.03;;;1.85;;
75316;SDS011;63913;51.492;10.368;2023-02-28T00:32:43;6.03;;;1.42;;
75316;SDS011;63913;51.492;10.368;2023-02-28T00:35:09;1.42;;;1.23;;
75316;SDS011;63913;51.492;10.368;2023-02-28T00:37:35;2.08;;;1.10;;
75316;SDS011;63913;51.492;10.368;2023-02-28T00:40:01;1.73;;;1.08;;
75316;SDS011;63913;51.492;10.368;2023-02-28T00:42:29;1.98;;;0.82;;
75316;SDS011;63913;51.492;10.368;2023-02-28T00:44:56;2.60;;;1.05;;
75316;SDS011;63913;51.492;10.368;2023-02-28T00:47:21;1.30;;;1.17;;
75316;SDS011;63913;51.492;10.368;2023-02-28T00:49:47;1.45;;;0.80;;
75316;SDS011;63913;51.492;10.368;2023-02-28T00:52:12;1.25;;;0.80;;
75316;SDS011;63913;51.492;10.368;2023-02-28T00:54:37;2.00;;;1.27;;
75316;SDS011;63913;51.492;10.368;2023-02-28T00:57:03;8.17;;;2.77;;
75316;SDS011;63913;51.492;10.368;2023-02-28T00:59:30;12.15;;;3.95;;
75316;SDS011;63913;51.492;10.368;2023-02-28T01:01:55;6.78;;;2.33;;
75316;SDS011;63913;51.492;10.368;2023-02-28T01:04:21;4.07;;;2.10;;
75316;SDS011;63913;51.492;10.368;2023-02-28T01:06:46;5.63;;;2.35;;
75316;SDS011;63913;51.492;10.368;2023-02-28T01:09:12;3.53;;;1.63;;
75316;SDS011;63913;51.492;10.368;2023-02-28T01:11:37;2.40;;;1.10;;
75316;SDS011;63913;51.492;10.368;2023-02-28T01:14:03;3.72;;;1.30;;
75316;SDS011;63913;51.492;10.368;2023-02-28T01:16:29;2.65;;;1.42;;
75316;SDS011;63913;51.492;10.368;2023-02-28T01:18:55;3.72;;;1.10;;
75316;SDS011;63913;51.492;10.368;2023-02-28T01:21:21;1.85;;;1.20;;
75316;SDS011;63913;51.492;10.368;2023-02-28T01:23:47;1.83;;;0.90;;
75316;SDS011;63913;51.492;10.368;2023-02-28T01:26:14;1.48;;;0.80;;
75316;SDS011;63913;51.492;10.368;2023-02-28T01:28:42;3.03;;;0.95;;
75316;SDS011;63913;51.492;10.368;2023-02-28T01:31:08;1.08;;;0.98;;
75316;SDS011;63913;51.492;10.368;2023-02-28T01:33:36;0.80;;;0.77;;
75316;SDS011;63913;51.492;10.368;2023-02-28T01:36:21;1.25;;;0.70;;
75316;SDS011;63913;51.492;10.368;2023-02-28T01:38:48;1.48;;;0.68;;
75316;SDS011;63913;51.492;10.368;2023-02-28T01:41:19;0.60;;;0.55;;
75316;SDS011;63913;51.492;10.368;2023-02-28T01:46:12;1.00;;;0.53;;
75316;SDS011;63913;51.492;10.368;2023-02-28T01:48:51;0.80;;;0.65;;
75316;SDS011;63913;51.492;10.368;2023-02-28T01:51:22;1.40;;;0.60;;
75316;SDS011;63913;51.492;10.368;2023-02-28T01:54:20;1.35;;;0.60;;
75316;SDS011;63913;51.492;10.368;2023-02-28T01:56:52;1.65;;;0.85;;
75316;SDS011;63913;51.492;10.368;2023-02-28T01:59:23;1.10;;;0.68;;
75316;SDS011;63913;51.492;10.368;2023-02-28T02:01:52;0.70;;;0.55;;
75316;SDS011;63913;51.492;10.368;2023-02-28T02:04:18;1.05;;;0.75;;
75316;SDS011;63913;51.492;10.368;2023-02-28T02:06:46;2.58;;;0.65;;
75316;SDS011;63913;51.492;10.368;2023-02-28T02:09:13;0.65;;;0.65;;
75316;SDS011;63913;51.492;10.368;2023-02-28T02:11:39;1.85;;;1.08;;
75316;SDS011;63913;51.492;10.368;2023-02-28T02:19:29;1.08;;;0.60;;
75316;SDS011;63913;51.492;10.368;2023-02-28T02:30:33;0.80;;;0.80;;
75316;SDS011;63913;51.492;10.368;2023-02-28T02:33:45;2.15;;;0.88;;
75316;SDS011;63913;51.492;10.368;2023-02-28T02:36:36;3.83;;;0.90;;
75316;SDS011;63913;51.492;10.368;2023-02-28T02:39:13;1.17;;;0.80;;
75316;SDS011;63913;51.492;10.368;2023-02-28T02:44:31;0.75;;;0.73;;
75316;SDS011;63913;51.492;10.368;2023-02-28T02:47:08;1.50;;;0.80;;
75316;SDS011;63913;51.492;10.368;2023-02-28T02:49:38;2.00;;;1.00;;
75316;SDS011;63913;51.492;10.368;2023-02-28T02:52:08;1.88;;;1.08;;
75316;SDS011;63913;51.492;10.368;2023-02-28T02:54:37;1.65;;;0.90;;
75316;SDS011;63913;51.492;10.368;2023-02-28T02:57:10;1.67;;;0.95;;
75316;SDS011;63913;51.492;10.368;2023-02-28T02:59:43;1.05;;;0.95;;
75316;SDS011;63913;51.492;10.368;2023-02-28T03:02:10;2.05;;;1.00;;
75316;SDS011;63913;51.492;10.368;2023-02-28T03:04:40;0.77;;;0.70;;
75316;SDS011;63913;51.492;10.368;2023-02-28T03:07:08;1.45;;;0.60;;
75316;SDS011;63913;51.492;10.368;2023-02-28T03:09:34;0.80;;;0.60;;
75316;SDS011;63913;51.492;10.368;2023-02-28T03:12:00;2.40;;;0.70;;
75316;SDS011;63913;51.492;10.368;2023-02-28T03:28:37;1.15;;;0.75;;
75316;SDS011;63913;51.492;10.368;2023-02-28T03:36:27;0.68;;;0.68;;
75316;SDS011;63913;51.492;10.368;2023-02-28T03:38:57;1.27;;;0.55;;
75316;SDS011;63913;51.492;10.368;2023-02-28T03:41:32;0.80;;;0.75;;
75316;SDS011;63913;51.492;10.368;2023-02-28T03:44:06;2.40;;;0.82;;
75316;SDS011;63913;51.492;10.368;2023-02-28T03:46:40;0.77;;;0.77;;
75316;SDS011;63913;51.492;10.368;2023-02-28T03:49:22;0.80;;;0.80;;
75316;SDS011;63913;51.492;10.368;2023-02-28T03:51:52;0.98;;;0.88;;
75316;SDS011;63913;51.492;10.368;2023-02-28T03:54:26;0.80;;;0.80;;
75316;SDS011;63913;51.492;10.368;2023-02-28T03:59:47;2.25;;;1.08;;
75316;SDS011;63913;51.492;10.368;2023-02-28T04:02:19;0.80;;;0.80;;
75316;SDS011;63913;51.492;10.368;2023-02-28T04:04:44;0.83;;;0.70;;
75316;SDS011;63913;51.492;10.368;2023-02-28T04:07:13;0.73;;;0.70;;
75316;SDS011;63913;51.492;10.368;2023-02-28T04:09:39;1.65;;;0.70;;
75316;SDS011;63913;51.492;10.368;2023-02-28T04:12:04;1.25;;;0.80;;
75316;SDS011;63913;51.492;10.368;2023-02-28T04:14:30;1.80;;;0.60;;
75316;SDS011;63913;51.492;10.368;2023-02-28T04:16:55;2.43;;;1.17;;
75316;SDS011;63913;51.492;10.368;2023-02-28T04:19:21;0.83;;;0.47;;
75316;SDS011;63913;51.492;10.368;2023-02-28T04:21:50;0.77;;;0.77;;
75316;SDS011;63913;51.492;10.368;2023-02-28T04:24:18;1.73;;;1.15;;
75316;SDS011;63913;51.492;10.368;2023-02-28T04:26:45;0.63;;;0.60;;
75316;SDS011;63913;51.492;10.368;2023-02-28T04:29:13;0.38;;;0.38;;
75316;SDS011;63913;51.492;10.368;2023-02-28T04:31:42;1.10;;;0.68;;
75316;SDS011;63913;51.492;10.368;2023-02-28T04:34:07;0.70;;;0.70;;
75316;SDS011;63913;51.492;10.368;2023-02-28T04:36:33;0.70;;;0.70;;
75316;SDS011;63913;51.492;10.368;2023-02-28T04:38:58;0.50;;;0.50;;
75316;SDS011;63913;51.492;10.368;2023-02-28T04:41:23;0.83;;;0.67;;
75316;SDS011;63913;51.492;10.368;2023-02-28T04:43:50;1.50;;;0.82;;
75316;SDS011;63913;51.492;10.368;2023-02-28T04:46:17;1.02;;;0.60;;
75316;SDS011;63913;51.492;10.368;2023-02-28T04:48:43;1.10;;;0.70;;
75316;SDS011;63913;51.492;10.368;2023-02-28T04:51:10;0.90;;;0.77;;
75316;SDS011;63913;51.492;10.368;2023-02-28T04:53:37;1.33;;;0.85;;
75316;SDS011;63913;51.492;10.368;2023-02-28T04:56:04;1.45;;;0.90;;
75316;SDS011;63913;51.492;10.368;2023-02-28T04:58:31;1.13;;;0.70;;
75316;SDS011;63913;51.492;10.368;2023-02-28T05:01:01;1.13;;;0.60;;
75316;SDS011;63913;51.492;10.368;2023-02-28T05:03:28;0.98;;;0.80;;
75316;SDS011;63913;51.492;10.368;2023-02-28T05:05:53;0.80;;;0.68;;
75316;SDS011;63913;51.492;10.368;2023-02-28T05:08:18;0.90;;;0.70;;
75316;SDS011;63913;51.492;10.368;2023-02-28T05:10:44;0.73;;;0.70;;
75316;SDS011;63913;51.492;10.368;2023-02-28T05:13:11;2.27;;;0.80;;
75316;SDS011;63913;51.492;10.368;2023-02-28T05:15:37;1.88;;;0.90;;
75316;SDS011;63913;51.492;10.368;2023-02-28T05:18:03;1.65;;;0.68;;
75316;SDS011;63913;51.492;10.368;2023-02-28T05:20:28;1.55;;;0.57;;
75316;SDS011;63913;51.492;10.368;2023-02-28T05:22:53;9.30;;;2.97;;
75316;SDS011;63913;51.492;10.368;2023-02-28T05:25:20;2.85;;;1.50;;
75316;SDS011;63913;51.492;10.368;2023-02-28T05:27:49;4.50;;;1.45;;
75316;SDS011;63913;51.492;10.368;2023-02-28T05:30:14;2.67;;;1.25;;
75316;SDS011;63913;51.492;10.368;2023-02-28T05:32:40;1.60;;;0.88;;
75316;SDS011;63913;51.492;10.368;2023-02-28T05:35:08;2.22;;;0.90;;
75316;SDS011;63913;51.492;10.368;2023-02-28T05:37:35;1.35;;;0.80;;
75316;SDS011;63913;51.492;10.368;2023-02-28T05:40:01;1.77;;;0.88;;
75316;SDS011;63913;51.492;10.368;2023-02-28T05:42:31;0.93;;;0.80;;
75316;SDS011;63913;51.492;10.368;2023-02-28T05:44:56;2.13;;;0.90;;
75316;SDS011;63913;51.492;10.368;2023-02-28T05:47:22;2.10;;;0.77;;
75316;SDS011;63913;51.492;10.368;2023-02-28T05:49:47;1.27;;;0.87;;
75316;SDS011;63913;51.492;10.368;2023-02-28T05:52:12;0.63;;;0.60;;
75316;SDS011;63913;51.492;10.368;2023-02-28T05:54:37;1.67;;;0.80;;
75316;SDS011;63913;51.492;10.368;2023-02-28T05:57:03;1.60;;;0.60;;
75316;SDS011;63913;51.492;10.368;2023-02-28T05:59:28;1.17;;;0.70;;
75316;SDS011;63913;51.492;10.368;2023-02-28T06:01:53;4.87;;;1.83;;
75316;SDS011;63913;51.492;10.368;2023-02-28T06:04:20;2.40;;;1.60;;
75316;SDS011;63913;51.492;10.368;2023-02-28T06:06:48;3.72;;;1.20;;
75316;SDS011;63913;51.492;10.368;2023-02-28T06:09:15;1.08;;;0.80;;
75316;SDS011;63913;51.492;10.368;2023-02-28T06:11:41;1.48;;;0.90;;
75316;SDS011;63913;51.492;10.368;2023-02-28T06:14:07;1.00;;;0.80;;
75316;SDS011;63913;51.492;10.368;2023-02-28T06:16:37;1.80;;;0.90;;
75316;SDS011;63913;51.492;10.368;2023-02-28T06:19:03;1.23;;;0.80;;
75316;SDS011;63913;51.492;10.368;2023-02-28T06:21:29;2.38;;;1.13;;
75316;SDS011;63913;51.492;10.368;2023-02-28T06:23:55;1.42;;;0.80;;
75316;SDS011;63913;51.492;10.368;2023-02-28T06:26:22;1.17;;;0.88;;
75316;SDS011;63913;51.492;10.368;2023-02-28T06:28:47;1.13;;;0.90;;
75316;SDS011;63913;51.492;10.368;2023-02-28T06:31:14;2.45;;;0.93;;
75316;SDS011;63913;51.492;10.368;2023-02-28T06:33:41;1.75;;;1.40;;
75316;SDS011;63913;51.492;10.368;2023-02-28T06:36:07;3.17;;;1.42;;
75316;SDS011;63913;51.492;10.368;2023-02-28T06:38:34;2.40;;;1.33;;
75316;SDS011;63913;51.492;10.368;2023-02-28T06:41:00;1.65;;;1.23;;
75316;SDS011;63913;51.492;10.368;2023-02-28T06:43:30;4.00;;;1.63;;
75316;SDS011;63913;51.492;10.368;2023-02-28T06:45:58;5.32;;;2.30;;
75316;SDS011;63913;51.492;10.368;2023-02-28T06:48:25;9.38;;;3.53;;
75316;SDS011;63913;51.492;10.368;2023-02-28T06:50:52;7.18;;;3.30;;
75316;SDS011;63913;51.492;10.368;2023-02-28T06:53:26;7.13;;;3.38;;
75316;SDS011;63913;51.492;10.368;2023-02-28T06:55:52;6.97;;;2.90;;
75316;SDS011;63913;51.492;10.368;2023-02-28T06:58:17;3.05;;;1.92;;
75316;SDS011;63913;51.492;10.368;2023-02-28T07:00:44;2.20;;;1.30;;
75316;SDS011;63913;51.492;10.368;2023-02-28T07:03:11;1.77;;;1.13;;
75316;SDS011;63913;51.492;10.368;2023-02-28T07:05:38;2.00;;;0.88;;
75316;SDS011;63913;51.492;10.368;2023-02-28T07:08:04;1.88;;;0.88;;
75316;SDS011;63913;51.492;10.368;2023-02-28T07:10:31;1.13;;;0.85;;
75316;SDS011;63913;51.492;10.368;2023-02-28T07:12:59;1.60;;;1.27;;
75316;SDS011;63913;51.492;10.368;2023-02-28T07:15:25;2.80;;;1.10;;
75316;SDS011;63913;51.492;10.368;2023-02-28T07:17:50;3.47;;;1.15;;
75316;SDS011;63913;51.492;10.368;2023-02-28T07:20:16;1.83;;;1.00;;
75316;SDS011;63913;51.492;10.368;2023-02-28T07:22:42;1.25;;;1.10;;
75316;SDS011;63913;51.492;10.368;2023-02-28T07:25:07;1.77;;;1.38;;
75316;SDS011;63913;51.492;10.368;2023-02-28T07:27:33;2.13;;;1.45;;
75316;SDS011;63913;51.492;10.368;2023-02-28T07:29:59;2.25;;;1.40;;
75316;SDS011;63913;51.492;10.368;2023-02-28T07:32:26;1.30;;;1.13;;
75316;SDS011;63913;51.492;10.368;2023-02-28T07:34:52;4.82;;;2.65;;
75316;SDS011;63913;51.492;10.368;2023-02-28T07:37:18;2.83;;;1.45;;
75316;SDS011;63913;51.492;10.368;2023-02-28T07:39:43;1.95;;;1.27;;
75316;SDS011;63913;51.492;10.368;2023-02-28T07:42:09;3.60;;;1.43;;
75316;SDS011;63913;51.492;10.368;2023-02-28T07:44:38;3.35;;;1.17;;
75316;SDS011;63913;51.492;10.368;2023-02-28T07:47:10;3.10;;;1.30;;
75316;SDS011;63913;51.492;10.368;2023-02-28T07:49:39;2.40;;;2.15;;
75316;SDS011;63913;51.492;10.368;2023-02-28T07:52:05;1.98;;;1.33;;
75316;SDS011;63913;51.492;10.368;2023-02-28T07:54:32;3.83;;;1.15;;
75316;SDS011;63913;51.492;10.368;2023-02-28T07:56:57;1.67;;;1.05;;
75316;SDS011;63913;51.492;10.368;2023-02-28T07:59:22;2.00;;;1.00;;
75316;SDS011;63913;51.492;10.368;2023-02-28T08:01:48;2.05;;;1.25;;
75316;SDS011;63913;51.492;10.368;2023-02-28T08:04:15;1.75;;;1.10;;
75316;SDS011;63913;51.492;10.368;2023-02-28T08:06:42;7.53;;;1.90;;
75316;SDS011;63913;51.492;10.368;2023-02-28T08:09:07;2.15;;;1.38;;
75316;SDS011;63913;51.492;10.368;2023-02-28T08:11:33;3.75;;;1.48;;
75316;SDS011;63913;51.492;10.368;2023-02-28T08:13:58;2.83;;;1.30;;
75316;SDS011;63913;51.492;10.368;2023-02-28T08:16:23;2.10;;;1.13;;
75316;SDS011;63913;51.492;10.368;2023-02-28T08:18:49;3.27;;;1.27;;
75316;SDS011;63913;51.492;10.368;2023-02-28T08:21:17;2.15;;;1.63;;
75316;SDS011;63913;51.492;10.368;2023-02-28T08:23:43;2.20;;;1.40;;
75316;SDS011;63913;51.492;10.368;2023-02-28T08:26:08;2.92;;;1.70;;
75316;SDS011;63913;51.492;10.368;2023-02-28T08:28:33;2.47;;;1.50;;
75316;SDS011;63913;51.492;10.368;2023-02-28T08:30:59;2.42;;;1.25;;
75316;SDS011;63913;51.492;10.368;2023-02-28T08:33:24;3.17;;;1.48;;
75316;SDS011;63913;51.492;10.368;2023-02-28T08:35:54;2.45;;;1.30;;
75316;SDS011;63913;51.492;10.368;2023-02-28T08:38:20;2.55;;;1.73;;
75316;SDS011;63913;51.492;10.368;2023-02-28T08:40:45;2.13;;;1.55;;
75316;SDS011;63913;51.492;10.368;2023-02-28T08:43:10;2.37;;;1.47;;
75316;SDS011;63913;51.492;10.368;2023-02-28T08:45:36;3.80;;;1.70;;
75316;SDS011;63913;51.492;10.368;2023-02-28T08:48:01;3.13;;;1.92;;
75316;SDS011;63913;51.492;10.368;2023-02-28T08:50:27;3.55;;;1.77;;
75316;SDS011;63913;51.492;10.368;2023-02-28T08:52:52;2.70;;;1.57;;
75316;SDS011;63913;51.492;10.368;2023-02-28T08:55:17;2.72;;;1.55;;
75316;SDS011;63913;51.492;10.368;2023-02-28T08:57:43;3.20;;;1.67;;
75316;SDS011;63913;51.492;10.368;2023-02-28T09:00:08;1.85;;;1.48;;
75316;SDS011;63913;51.492;10.368;2023-02-28T09:02:35;1.55;;;1.40;;
75316;SDS011;63913;51.492;10.368;2023-02-28T09:05:00;3.88;;;1.90;;
75316;SDS011;63913;51.492;10.368;2023-02-28T09:07:26;1.70;;;1.50;;
75316;SDS011;63913;51.492;10.368;2023-02-28T09:09:51;3.13;;;1.92;;
75316;SDS011;63913;51.492;10.368;2023-02-28T09:12:31;2.60;;;1.70;;
75316;SDS011;63913;51.492;10.368;2023-02-28T09:14:58;1.38;;;1.27;;
75316;SDS011;63913;51.492;10.368;2023-02-28T09:17:24;2.88;;;1.50;;
75316;SDS011;63913;51.492;10.368;2023-02-28T09:19:49;3.07;;;1.60;;
75316;SDS011;63913;51.492;10.368;2023-02-28T09:22:14;3.23;;;1.63;;
75316;SDS011;63913;51.492;10.368;2023-02-28T09:24:40;3.08;;;1.55;;
75316;SDS011;63913;51.492;10.368;2023-02-28T09:27:06;2.85;;;1.55;;
75316;SDS011;63913;51.492;10.368;2023-02-28T09:29:32;4.32;;;2.00;;
75316;SDS011;63913;51.492;10.368;2023-02-28T09:31:58;4.28;;;1.80;;
75316;SDS011;63913;51.492;10.368;2023-02-28T09:34:25;3.15;;;1.75;;
75316;SDS011;63913;51.492;10.368;2023-02-28T09:36:51;3.30;;;1.98;;
75316;SDS011;63913;51.492;10.368;2023-02-28T09:39:20;3.78;;;2.30;;
75316;SDS011;63913;51.492;10.368;2023-02-28T09:41:47;3.45;;;1.85;;
75316;SDS011;63913;51.492;10.368;2023-02-28T09:44:18;3.78;;;1.58;;
75316;SDS011;63913;51.492;10.368;2023-02-28T09:49:58;2.53;;;1.63;;
75316;SDS011;63913;51.492;10.368;2023-02-28T09:52:30;3.42;;;1.95;;
75316;SDS011;63913;51.492;10.368;2023-02-28T09:55:42;4.50;;;2.22;;
75316;SDS011;63913;51.492;10.368;2023-02-28T09:57:49;2.80;;;2.05;;
75316;SDS011;63913;51.492;10.368;2023-02-28T10:00:21;6.00;;;1.70;;
75316;SDS011;63913;51.492;10.368;2023-02-28T10:05:33;2.05;;;1.60;;
75316;SDS011;63913;51.492;10.368;2023-02-28T10:08:19;2.90;;;1.90;;
75316;SDS011;63913;51.492;10.368;2023-02-28T10:11:07;1.80;;;1.63;;
75316;SDS011;63913;51.492;10.368;2023-02-28T10:13:51;4.32;;;2.00;;
75316;SDS011;63913;51.492;10.368;2023-02-28T10:16:25;2.45;;;1.85;;
75316;SDS011;63913;51.492;10.368;2023-02-28T10:18:57;3.58;;;2.00;;
75316;SDS011;63913;51.492;10.368;2023-02-28T10:26:51;3.38;;;1.88;;
75316;SDS011;63913;51.492;10.368;2023-02-28T10:29:20;2.95;;;2.13;;
75316;SDS011;63913;51.492;10.368;2023-02-28T10:31:46;5.13;;;2.30;;
75316;SDS011;63913;51.492;10.368;2023-02-28T10:34:12;3.15;;;2.00;;
75316;SDS011;63913;51.492;10.368;2023-02-28T10:36:41;3.42;;;2.30;;
75316;SDS011;63913;51.492;10.368;2023-02-28T10:42:03;3.35;;;2.10;;
75316;SDS011;63913;51.492;10.368;2023-02-28T10:44:29;3.28;;;1.95;;
75316;SDS011;63913;51.492;10.368;2023-02-28T10:46:54;3.25;;;2.15;;
75316;SDS011;63913;51.492;10.368;2023-02-28T10:49:25;2.72;;;2.20;;
75316;SDS011;63913;51.492;10.368;2023-02-28T10:51:54;4.80;;;2.33;;
75316;SDS011;63913;51.492;10.368;2023-02-28T10:57:20;3.30;;;2.28;;
75316;SDS011;63913;51.492;10.368;2023-02-28T10:59:53;3.33;;;2.00;;
75316;SDS011;63913;51.492;10.368;2023-02-28T11:02:40;2.85;;;2.08;;
75316;SDS011;63913;51.492;10.368;2023-02-28T11:05:23;4.05;;;2.40;;
75316;SDS011;63913;51.492;10.368;2023-02-28T11:07:54;5.25;;;2.25;;
75316;SDS011;63913;51.492;10.368;2023-02-28T11:10:36;2.95;;;1.90;;
75316;SDS011;63913;51.492;10.368;2023-02-28T11:13:02;3.55;;;2.33;;
75316;SDS011;63913;51.492;10.368;2023-02-28T11:15:32;2.75;;;2.17;;
75316;SDS011;63913;51.492;10.368;2023-02-28T11:20:36;4.43;;;2.20;;
75316;SDS011;63913;51.492;10.368;2023-02-28T11:23:03;2.97;;;2.40;;
75316;SDS011;63913;51.492;10.368;2023-02-28T11:25:30;5.90;;;2.50;;
75316;SDS011;63913;51.492;10.368;2023-02-28T11:28:02;4.78;;;2.80;;
75316;SDS011;63913;51.492;10.368;2023-02-28T11:30:35;4.53;;;2.70;;
75316;SDS011;63913;51.492;10.368;2023-02-28T11:33:23;4.05;;;2.08;;
75316;SDS011;63913;51.492;10.368;2023-02-28T11:35:55;6.45;;;2.75;;
75316;SDS011;63913;51.492;10.368;2023-02-28T11:38:24;4.72;;;2.28;;
75316;SDS011;63913;51.492;10.368;2023-02-28T11:46:03;3.00;;;2.10;;
75316;SDS011;63913;51.492;10.368;2023-02-28T11:48:45;3.53;;;2.30;;
75316;SDS011;63913;51.492;10.368;2023-02-28T11:51:28;3.25;;;2.00;;
75316;SDS011;63913;51.492;10.368;2023-02-28T11:57:12;4.80;;;2.90;;
75316;SDS011;63913;51.492;10.368;2023-02-28T11:59:50;7.32;;;3.50;;
75316;SDS011;63913;51.492;10.368;2023-02-28T12:02:51;3.72;;;2.30;;
75316;SDS011;63913;51.492;10.368;2023-02-28T12:11:32;7.63;;;3.78;;
75316;SDS011;63913;51.492;10.368;2023-02-28T12:17:12;6.30;;;2.45;;
75316;SDS011;63913;51.492;10.368;2023-02-28T12:25:00;2.90;;;1.88;;
75316;SDS011;63913;51.492;10.368;2023-02-28T12:27:27;4.72;;;1.80;;
75316;SDS011;63913;51.492;10.368;2023-02-28T12:29:58;5.35;;;2.13;;
75316;SDS011;63913;51.492;10.368;2023-02-28T12:32:39;2.83;;;1.63;;
75316;SDS011;63913;51.492;10.368;2023-02-28T12:35:28;3.00;;;2.22;;
75316;SDS011;63913;51.492;10.368;2023-02-28T12:40:43;4.68;;;2.78;;
75316;SDS011;63913;51.492;10.368;2023-02-28T12:43:14;3.13;;;2.10;;
75316;SDS011;63913;51.492;10.368;2023-02-28T12:50:58;2.83;;;2.22;;
75316;SDS011;63913;51.492;10.368;2023-02-28T12:53:35;4.13;;;2.25;;
75316;SDS011;63913;51.492;10.368;2023-02-28T12:59:01;2.67;;;1.95;;
75316;SDS011;63913;51.492;10.368;2023-02-28T13:04:55;2.92;;;2.25;;
75316;SDS011;63913;51.492;10.368;2023-02-28T13:13:17;2.88;;;2.10;;
75316;SDS011;63913;51.492;10.368;2023-02-28T13:18:43;9.90;;;4.68;;
75316;SDS011;63913;51.492;10.368;2023-02-28T13:26:32;4.72;;;2.53;;
75316;SDS011;63913;51.492;10.368;2023-02-28T13:34:31;3.85;;;2.78;;
75316;SDS011;63913;51.492;10.368;2023-02-28T13:39:49;4.50;;;2.60;;
75316;SDS011;63913;51.492;10.368;2023-02-28T13:47:39;4.93;;;2.50;;
75316;SDS011;63913;51.492;10.368;2023-02-28T14:01:37;6.10;;;3.28;;
75316;SDS011;63913;51.492;10.368;2023-02-28T14:07:32;6.25;;;3.08;;
75316;SDS011;63913;51.492;10.368;2023-02-28T14:10:07;4.10;;;2.70;;
75316;SDS011;63913;51.492;10.368;2023-02-28T14:12:55;5.32;;;3.40;;
75316;SDS011;63913;51.492;10.368;2023-02-28T14:15:50;5.00;;;3.22;;
75316;SDS011;63913;51.492;10.368;2023-02-28T14:18:25;4.03;;;2.75;;
75316;SDS011;63913;51.492;10.368;2023-02-28T14:20:56;5.00;;;2.97;;
75316;SDS011;63913;51.492;10.368;2023-02-28T14:23:47;3.92;;;2.60;;
75316;SDS011;63913;51.492;10.368;2023-02-28T14:26:37;4.93;;;2.33;;
75316;SDS011;63913;51.492;10.368;2023-02-28T14:32:02;12.90;;;5.60;;
75316;SDS011;63913;51.492;10.368;2023-02-28T14:34:42;5.68;;;3.08;;
75316;SDS011;63913;51.492;10.368;2023-02-28T14:37:10;5.15;;;2.65;;
75316;SDS011;63913;51.492;10.368;2023-02-28T14:39:41;5.65;;;2.90;;
75316;SDS011;63913;51.492;10.368;2023-02-28T14:44:57;3.97;;;2.60;;
75316;SDS011;63913;51.492;10.368;2023-02-28T14:47:23;5.00;;;2.72;;
75316;SDS011;63913;51.492;10.368;2023-02-28T14:49:52;4.25;;;2.70;;
75316;SDS011;63913;51.492;10.368;2023-02-28T14:52:24;3.75;;;2.83;;
75316;SDS011;63913;51.492;10.368;2023-02-28T14:54:59;5.10;;;2.72;;
75316;SDS011;63913;51.492;10.368;2023-02-28T14:57:30;5.10;;;2.67;;
75316;SDS011;63913;51.492;10.368;2023-02-28T15:02:37;4.85;;;2.80;;
75316;SDS011;63913;51.492;10.368;2023-02-28T15:07:41;5.20;;;3.00;;
75316;SDS011;63913;51.492;10.368;2023-02-28T15:10:13;4.93;;;3.30;;
75316;SDS011;63913;51.492;10.368;2023-02-28T15:13:07;4.45;;;3.10;;
75316;SDS011;63913;51.492;10.368;2023-02-28T15:15:55;3.13;;;2.83;;
75316;SDS011;63913;51.492;10.368;2023-02-28T15:18:37;6.13;;;3.17;;
75316;SDS011;63913;51.492;10.368;2023-02-28T15:21:20;4.50;;;2.92;;
75316;SDS011;63913;51.492;10.368;2023-02-28T15:26:24;10.77;;;4.65;;
75316;SDS011;63913;51.492;10.368;2023-02-28T15:28:58;5.95;;;2.75;;
75316;SDS011;63913;51.492;10.368;2023-02-28T15:31:29;7.70;;;4.05;;
75316;SDS011;63913;51.492;10.368;2023-02-28T15:33:58;4.85;;;3.25;;
75316;SDS011;63913;51.492;10.368;2023-02-28T15:36:29;3.90;;;2.85;;
75316;SDS011;63913;51.492;10.368;2023-02-28T15:38:56;5.10;;;3.33;;
75316;SDS011;63913;51.492;10.368;2023-02-28T15:41:28;5.32;;;3.10;;
75316;SDS011;63913;51.492;10.368;2023-02-28T15:46:41;5.95;;;2.90;;
75316;SDS011;63913;51.492;10.368;2023-02-28T15:49:17;6.18;;;3.10;;
75316;SDS011;63913;51.492;10.368;2023-02-28T15:51:45;4.20;;;2.78;;
75316;SDS011;63913;51.492;10.368;2023-02-28T15:54:14;10.60;;;5.90;;
75316;SDS011;63913;51.492;10.368;2023-02-28T15:56:46;8.00;;;3.92;;
75316;SDS011;63913;51.492;10.368;2023-02-28T15:59:17;5.35;;;3.80;;
75316;SDS011;63913;51.492;10.368;2023-02-28T16:01:46;5.13;;;3.03;;
75316;SDS011;63913;51.492;10.368;2023-02-28T16:04:15;7.80;;;3.25;;
75316;SDS011;63913;51.492;10.368;2023-02-28T16:06:43;6.85;;;3.60;;
75316;SDS011;63913;51.492;10.368;2023-02-28T16:09:14;4.93;;;3.08;;
75316;SDS011;63913;51.492;10.368;2023-02-28T16:11:51;5.30;;;3.22;;
75316;SDS011;63913;51.492;10.368;2023-02-28T16:14:19;3.60;;;2.55;;
75316;SDS011;63913;51.492;10.368;2023-02-28T16:17:02;5.00;;;3.25;;
75316;SDS011;63913;51.492;10.368;2023-02-28T16:19:29;5.43;;;2.92;;
75316;SDS011;63913;51.492;10.368;2023-02-28T16:21:55;7.25;;;3.78;;
75316;SDS011;63913;51.492;10.368;2023-02-28T16:24:21;6.07;;;2.78;;
75316;SDS011;63913;51.492;10.368;2023-02-28T16:26:47;5.13;;;3.17;;
75316;SDS011;63913;51.492;10.368;2023-02-28T16:29:23;5.65;;;3.25;;
75316;SDS011;63913;51.492;10.368;2023-02-28T16:31:51;9.43;;;4.65;;
75316;SDS011;63913;51.492;10.368;2023-02-28T16:34:16;5.18;;;2.95;;
75316;SDS011;63913;51.492;10.368;2023-02-28T16:36:46;6.10;;;3.20;;
75316;SDS011;63913;51.492;10.368;2023-02-28T16:39:13;6.15;;;3.10;;
75316;SDS011;63913;51.492;10.368;2023-02-28T16:41:40;6.95;;;3.17;;
75316;SDS011;63913;51.492;10.368;2023-02-28T16:44:26;8.95;;;4.43;;
75316;SDS011;63913;51.492;10.368;2023-02-28T16:46:56;9.60;;;4.75;;
75316;SDS011;63913;51.492;10.368;2023-02-28T16:49:25;6.10;;;3.53;;
75316;SDS011;63913;51.492;10.368;2023-02-28T16:51:52;5.00;;;3.38;;
75316;SDS011;63913;51.492;10.368;2023-02-28T16:54:18;6.80;;;3.40;;
75316;SDS011;63913;51.492;10.368;2023-02-28T16:56:44;5.03;;;2.97;;
75316;SDS011;63913;51.492;10.368;2023-02-28T16:59:13;6.35;;;3.50;;
75316;SDS011;63913;51.492;10.368;2023-02-28T17:01:45;4.03;;;2.95;;
75316;SDS011;63913;51.492;10.368;2023-02-28T17:04:11;5.60;;;3.10;;
75316;SDS011;63913;51.492;10.368;2023-02-28T17:06:37;6.05;;;3.08;;
75316;SDS011;63913;51.492;10.368;2023-02-28T17:09:03;5.05;;;2.97;;
75316;SDS011;63913;51.492;10.368;2023-02-28T17:11:29;7.97;;;3.30;;
75316;SDS011;63913;51.492;10.368;2023-02-28T17:13:54;5.90;;;3.08;;
75316;SDS011;63913;51.492;10.368;2023-02-28T17:16:30;5.90;;;3.17;;
75316;SDS011;63913;51.492;10.368;2023-02-28T17:18:58;10.98;;;2.80;;
75316;SDS011;63913;51.492;10.368;2023-02-28T17:21:27;7.05;;;3.40;;
75316;SDS011;63913;51.492;10.368;2023-02-28T17:23:54;5.20;;;3.28;;